sensor_id;sensor_type;location;lat;lon;timestamp;pressure;altitude;pressure_sealevel;temperature;humidity
54948;BME280;41113;41.882;12.530;2023-03-31T00:01:48;101725.34;;;13.55;80.61
54948;BME280;41113;41.882;12.530;2023-03-31T00:04:13;101714.53;;;13.34;81.08
54948;BME280;41113;41.882;12.530;2023-03-31T00:06:41;101717.09;;;13.35;80.85
54948;BME280;41113;41.882;12.530;2023-03-31T00:09:12;101709.13;;;13.34;80.49
54948;BME280;41113;41.882;12.530;2023-03-31T00:11:39;101699.22;;;13.23;81.12
54948;BME280;41113;41.882;12.530;2023-03-31T00:14:05;101683.78;;;13.14;81.13
54948;BME280;41113;41.882;12.530;2023-03-31T00:16:35;101673.28;;;13.00;82.13
54948;BME280;41113;41.882;12.530;2023-03-31T00:19:01;101661.03;;;12.96;81.77
54948;BME280;41113;41.882;12.530;2023-03-31T00:21:27;101645.84;;;12.95;81.47
54948;BME280;41113;41.882;12.530;2023-03-31T00:23:55;101650.97;;;12.98;81.58
54948;BME280;41113;41.882;12.530;2023-03-31T00:26:21;101637.50;;;12.98;81.75
54948;BME280;41113;41.882;12.530;2023-03-31T00:28:48;101632.72;;;13.01;81.33
54948;BME280;41113;41.882;12.530;2023-03-31T00:31:13;101624.84;;;13.09;81.00
54948;BME280;41113;41.882;12.530;2023-03-31T00:33:39;101616.97;;;13.18;80.62
54948;BME280;41113;41.882;12.530;2023-03-31T00:36:05;101611.91;;;13.24;79.93
54948;BME280;41113;41.882;12.530;2023-03-31T00:38:34;101606.25;;;13.27;79.59
54948;BME280;41113;41.882;12.530;2023-03-31T00:41:00;101604.00;;;13.32;79.20
54948;BME280;41113;41.882;12.530;2023-03-31T00:43:36;101600.00;;;13.27;79.45
54948;BME280;41113;41.882;12.530;2023-03-31T00:46:04;101599.41;;;13.23;79.45
54948;BME280;41113;41.882;12.530;2023-03-31T00:48:32;101595.78;;;13.13;79.33
54948;BME280;41113;41.882;12.530;2023-03-31T00:51:02;101588.78;;;13.11;79.33
54948;BME280;41113;41.882;12.530;2023-03-31T00:53:30;101584.72;;;13.16;78.97
54948;BME280;41113;41.882;12.530;2023-03-31T00:56:01;101586.19;;;13.20;78.67
54948;BME280;41113;41.882;12.530;2023-03-31T00:58:30;101589.75;;;13.21;78.46
54948;BME280;41113;41.882;12.530;2023-03-31T01:00:59;101589.88;;;13.19;78.30
54948;BME280;41113;41.882;12.530;2023-03-31T01:03:25;101586.22;;;13.09;78.54
54948;BME280;41113;41.882;12.530;2023-03-31T01:05:56;101570.56;;;13.03;78.72
54948;BME280;41113;41.882;12.530;2023-03-31T01:08:25;101565.19;;;13.03;78.72
54948;BME280;41113;41.882;12.530;2023-03-31T01:10:55;101565.22;;;12.92;79.04
54948;BME280;41113;41.882;12.530;2023-03-31T01:13:21;101562.97;;;12.97;78.79
54948;BME280;41113;41.882;12.530;2023-03-31T01:15:48;101562.34;;;13.04;78.65
54948;BME280;41113;41.882;12.530;2023-03-31T01:18:14;101566.38;;;13.10;78.29
54948;BME280;41113;41.882;12.530;2023-03-31T01:23:45;101564.88;;;13.17;77.83
54948;BME280;41113;41.882;12.530;2023-03-31T01:48:25;101526.28;;;12.85;78.30
54948;BME280;41113;41.882;12.530;2023-03-31T01:53:50;101513.00;;;12.93;77.92
54948;BME280;41113;41.882;12.530;2023-03-31T01:56:25;101502.94;;;12.95;77.57
54948;BME280;41113;41.882;12.530;2023-03-31T01:59:15;101494.47;;;12.99;77.32
54948;BME280;41113;41.882;12.530;2023-03-31T02:02:02;101487.97;;;13.02;77.48
54948;BME280;41113;41.882;12.530;2023-03-31T02:04:40;101485.47;;;13.10;77.08
54948;BME280;41113;41.882;12.530;2023-03-31T02:07:16;101471.44;;;13.16;76.81
54948;BME280;41113;41.882;12.530;2023-03-31T02:09:48;101485.41;;;13.21;76.62
54948;BME280;41113;41.882;12.530;2023-03-31T02:12:16;101486.13;;;13.23;76.62
54948;BME280;41113;41.882;12.530;2023-03-31T02:14:45;101495.19;;;13.22;76.35
54948;BME280;41113;41.882;12.530;2023-03-31T02:17:15;101485.53;;;13.20;76.33
54948;BME280;41113;41.882;12.530;2023-03-31T02:19:44;101473.22;;;13.06;76.67
54948;BME280;41113;41.882;12.530;2023-03-31T02:22:13;101465.88;;;13.08;76.91
54948;BME280;41113;41.882;12.530;2023-03-31T02:24:40;101469.28;;;13.10;76.60
54948;BME280;41113;41.882;12.530;2023-03-31T02:27:30;101456.66;;;13.11;76.48
54948;BME280;41113;41.882;12.530;2023-03-31T02:29:57;101450.66;;;13.07;76.53
54948;BME280;41113;41.882;12.530;2023-03-31T02:34:50;101451.84;;;12.93;77.12
54948;BME280;41113;41.882;12.530;2023-03-31T02:37:16;101433.69;;;12.95;77.10
54948;BME280;41113;41.882;12.530;2023-03-31T02:39:44;101428.44;;;12.94;76.88
54948;BME280;41113;41.882;12.530;2023-03-31T02:42:10;101428.25;;;12.86;77.24
54948;BME280;41113;41.882;12.530;2023-03-31T02:44:37;101425.56;;;12.86;77.22
54948;BME280;41113;41.882;12.530;2023-03-31T02:47:07;101405.25;;;12.82;76.85
54948;BME280;41113;41.882;12.530;2023-03-31T02:49:33;101410.19;;;12.76;77.19
54948;BME280;41113;41.882;12.530;2023-03-31T02:52:32;101398.59;;;12.86;76.94
54948;BME280;41113;41.882;12.530;2023-03-31T02:55:21;101392.81;;;12.90;76.54
54948;BME280;41113;41.882;12.530;2023-03-31T03:03:24;101377.56;;;12.80;76.79
54948;BME280;41113;41.882;12.530;2023-03-31T03:11:37;101362.41;;;12.78;76.61
54948;BME280;41113;41.882;12.530;2023-03-31T03:14:11;101378.69;;;12.77;76.38
54948;BME280;41113;41.882;12.530;2023-03-31T03:16:49;101393.31;;;12.74;76.28
54948;BME280;41113;41.882;12.530;2023-03-31T03:19:21;101382.69;;;12.83;76.10
54948;BME280;41113;41.882;12.530;2023-03-31T03:21:47;101380.44;;;12.88;75.93
54948;BME280;41113;41.882;12.530;2023-03-31T03:24:14;101378.47;;;12.90;75.85
54948;BME280;41113;41.882;12.530;2023-03-31T03:26:41;101361.53;;;12.78;75.80
54948;BME280;41113;41.882;12.530;2023-03-31T03:29:07;101358.31;;;12.84;75.89
54948;BME280;41113;41.882;12.530;2023-03-31T03:31:32;101365.25;;;12.87;75.59
54948;BME280;41113;41.882;12.530;2023-03-31T03:33:58;101368.41;;;12.92;75.53
54948;BME280;41113;41.882;12.530;2023-03-31T03:36:24;101369.50;;;12.80;75.83
54948;BME280;41113;41.882;12.530;2023-03-31T03:38:50;101359.53;;;12.70;76.12
54948;BME280;41113;41.882;12.530;2023-03-31T03:41:15;101356.09;;;12.68;76.19
54948;BME280;41113;41.882;12.530;2023-03-31T03:43:41;101357.06;;;12.67;76.29
54948;BME280;41113;41.882;12.530;2023-03-31T03:46:06;101361.16;;;12.62;76.30
54948;BME280;41113;41.882;12.530;2023-03-31T03:48:31;101378.13;;;12.53;77.04
54948;BME280;41113;41.882;12.530;2023-03-31T03:51:00;101374.38;;;12.44;77.47
54948;BME280;41113;41.882;12.530;2023-03-31T03:53:25;101376.72;;;12.58;76.80
54948;BME280;41113;41.882;12.530;2023-03-31T03:55:51;101372.28;;;12.68;76.22
54948;BME280;41113;41.882;12.530;2023-03-31T03:58:16;101371.03;;;12.72;76.06
54948;BME280;41113;41.882;12.530;2023-03-31T04:00:44;101369.09;;;12.63;76.49
54948;BME280;41113;41.882;12.530;2023-03-31T04:03:10;101380.09;;;12.71;76.38
54948;BME280;41113;41.882;12.530;2023-03-31T04:05:35;101382.84;;;12.60;76.66
54948;BME280;41113;41.882;12.530;2023-03-31T04:08:01;101373.97;;;12.49;76.83
54948;BME280;41113;41.882;12.530;2023-03-31T04:10:27;101374.44;;;12.54;76.68
54948;BME280;41113;41.882;12.530;2023-03-31T04:12:52;101366.50;;;12.52;76.49
54948;BME280;41113;41.882;12.530;2023-03-31T04:15:18;101352.75;;;12.55;76.86
54948;BME280;41113;41.882;12.530;2023-03-31T04:17:43;101358.13;;;12.55;76.68
54948;BME280;41113;41.882;12.530;2023-03-31T04:20:16;101365.16;;;12.67;76.26
54948;BME280;41113;41.882;12.530;2023-03-31T04:22:42;101362.09;;;12.72;76.61
54948;BME280;41113;41.882;12.530;2023-03-31T04:25:11;101366.50;;;12.52;76.90
54948;BME280;41113;41.882;12.530;2023-03-31T04:27:44;101354.81;;;12.42;77.58
54948;BME280;41113;41.882;12.530;2023-03-31T04:30:18;101351.25;;;12.41;77.33
54948;BME280;41113;41.882;12.530;2023-03-31T04:32:57;101350.91;;;12.35;77.92
54948;BME280;41113;41.882;12.530;2023-03-31T04:35:26;101334.50;;;12.38;77.59
54948;BME280;41113;41.882;12.530;2023-03-31T04:37:52;101339.75;;;12.39;77.52
54948;BME280;41113;41.882;12.530;2023-03-31T04:40:23;101333.78;;;12.36;77.67
54948;BME280;41113;41.882;12.530;2023-03-31T04:42:49;101340.63;;;12.40;77.90
54948;BME280;41113;41.882;12.530;2023-03-31T04:45:16;101343.75;;;12.45;77.82
54948;BME280;41113;41.882;12.530;2023-03-31T04:47:41;101345.88;;;12.41;78.00
54948;BME280;41113;41.882;12.530;2023-03-31T04:50:08;101353.81;;;12.43;77.92
54948;BME280;41113;41.882;12.530;2023-03-31T04:52:34;101352.50;;;12.37;78.19
54948;BME280;41113;41.882;12.530;2023-03-31T04:55:00;101352.50;;;12.37;78.03
54948;BME280;41113;41.882;12.530;2023-03-31T04:57:25;101349.41;;;12.42;77.75
54948;BME280;41113;41.882;12.530;2023-03-31T04:59:51;101359.75;;;12.37;77.80
54948;BME280;41113;41.882;12.530;2023-03-31T05:02:16;101357.53;;;12.31;78.30
54948;BME280;41113;41.882;12.530;2023-03-31T05:04:48;101358.59;;;12.19;79.00
54948;BME280;41113;41.882;12.530;2023-03-31T05:07:13;101346.59;;;12.23;78.83
54948;BME280;41113;41.882;12.530;2023-03-31T05:09:38;101347.56;;;12.22;78.94
54948;BME280;41113;41.882;12.530;2023-03-31T05:12:04;101344.16;;;12.20;79.17
54948;BME280;41113;41.882;12.530;2023-03-31T05:14:30;101345.28;;;12.17;79.33
54948;BME280;41113;41.882;12.530;2023-03-31T05:16:55;101346.78;;;12.31;78.74
54948;BME280;41113;41.882;12.530;2023-03-31T05:19:22;101338.38;;;12.45;78.42
54948;BME280;41113;41.882;12.530;2023-03-31T05:21:47;101334.47;;;12.59;77.76
54948;BME280;41113;41.882;12.530;2023-03-31T05:24:13;101333.16;;;12.74;76.71
54948;BME280;41113;41.882;12.530;2023-03-31T05:26:38;101334.44;;;12.80;76.59
54948;BME280;41113;41.882;12.530;2023-03-31T05:29:05;101335.84;;;13.04;75.37
54948;BME280;41113;41.882;12.530;2023-03-31T05:31:30;101347.97;;;12.89;75.33
54948;BME280;41113;41.882;12.530;2023-03-31T05:33:56;101333.47;;;12.60;76.40
54948;BME280;41113;41.882;12.530;2023-03-31T05:36:21;101343.22;;;12.51;77.10
54948;BME280;41113;41.882;12.530;2023-03-31T05:38:47;101334.63;;;12.88;76.30
54948;BME280;41113;41.882;12.530;2023-03-31T05:41:13;101329.78;;;12.82;75.88
54948;BME280;41113;41.882;12.530;2023-03-31T05:43:41;101332.19;;;12.85;76.04
54948;BME280;41113;41.882;12.530;2023-03-31T05:46:07;101334.31;;;12.81;75.93
54948;BME280;41113;41.882;12.530;2023-03-31T05:48:33;101331.38;;;12.63;76.59
54948;BME280;41113;41.882;12.530;2023-03-31T05:50:59;101342.53;;;12.80;76.39
54948;BME280;41113;41.882;12.530;2023-03-31T05:53:25;101337.31;;;12.88;75.89
54948;BME280;41113;41.882;12.530;2023-03-31T05:55:59;101332.28;;;13.04;75.30
54948;BME280;41113;41.882;12.530;2023-03-31T05:58:26;101326.53;;;13.18;74.70
54948;BME280;41113;41.882;12.530;2023-03-31T06:01:13;101325.91;;;13.05;74.35
54948;BME280;41113;41.882;12.530;2023-03-31T06:03:43;101335.97;;;13.33;73.91
54948;BME280;41113;41.882;12.530;2023-03-31T06:06:10;101324.19;;;13.54;72.63
54948;BME280;41113;41.882;12.530;2023-03-31T06:08:39;101318.38;;;13.49;72.49
54948;BME280;41113;41.882;12.530;2023-03-31T06:11:10;101307.31;;;13.90;71.70
54948;BME280;41113;41.882;12.530;2023-03-31T06:13:37;101303.03;;;13.97;71.04
54948;BME280;41113;41.882;12.530;2023-03-31T06:16:03;101300.03;;;14.20;70.12
54948;BME280;41113;41.882;12.530;2023-03-31T06:18:31;101301.16;;;14.27;70.07
54948;BME280;41113;41.882;12.530;2023-03-31T06:20:57;101305.81;;;14.63;69.51
54948;BME280;41113;41.882;12.530;2023-03-31T06:23:23;101312.38;;;14.51;68.68
54948;BME280;41113;41.882;12.530;2023-03-31T06:25:50;101309.22;;;14.56;68.74
54948;BME280;41113;41.882;12.530;2023-03-31T06:28:16;101306.53;;;14.93;68.54
54948;BME280;41113;41.882;12.530;2023-03-31T06:30:42;101308.22;;;15.04;67.91
54948;BME280;41113;41.882;12.530;2023-03-31T06:33:07;101306.16;;;15.15;67.54
54948;BME280;41113;41.882;12.530;2023-03-31T06:35:32;101296.53;;;15.03;67.09
54948;BME280;41113;41.882;12.530;2023-03-31T06:38:01;101300.25;;;15.02;67.27
54948;BME280;41113;41.882;12.530;2023-03-31T06:40:27;101291.81;;;14.78;67.85
54948;BME280;41113;41.882;12.530;2023-03-31T06:42:52;101290.88;;;14.59;68.92
54948;BME280;41113;41.882;12.530;2023-03-31T06:45:17;101291.34;;;14.82;68.86
54948;BME280;41113;41.882;12.530;2023-03-31T06:47:43;101289.69;;;14.72;68.37
54948;BME280;41113;41.882;12.530;2023-03-31T06:50:08;101288.19;;;14.50;69.06
54948;BME280;41113;41.882;12.530;2023-03-31T06:52:35;101293.06;;;14.37;69.84
54948;BME280;41113;41.882;12.530;2023-03-31T06:55:00;101291.06;;;14.29;70.36
54948;BME280;41113;41.882;12.530;2023-03-31T06:57:26;101285.66;;;14.29;70.37
54948;BME280;41113;41.882;12.530;2023-03-31T06:59:52;101277.84;;;14.36;70.70
54948;BME280;41113;41.882;12.530;2023-03-31T07:02:17;101291.47;;;14.53;70.25
54948;BME280;41113;41.882;12.530;2023-03-31T07:04:43;101292.41;;;14.72;69.69
54948;BME280;41113;41.882;12.530;2023-03-31T07:07:08;101290.59;;;14.90;69.08
54948;BME280;41113;41.882;12.530;2023-03-31T07:09:33;101298.41;;;14.66;69.33
54948;BME280;41113;41.882;12.530;2023-03-31T07:11:59;101291.47;;;14.53;69.65
54948;BME280;41113;41.882;12.530;2023-03-31T07:14:25;101282.81;;;14.40;70.08
54948;BME280;41113;41.882;12.530;2023-03-31T07:16:51;101273.72;;;14.31;70.55
54948;BME280;41113;41.882;12.530;2023-03-31T07:19:17;101272.69;;;14.42;70.35
54948;BME280;41113;41.882;12.530;2023-03-31T07:21:43;101265.34;;;14.25;70.84
54948;BME280;41113;41.882;12.530;2023-03-31T07:24:08;101257.94;;;14.27;71.12
54948;BME280;41113;41.882;12.530;2023-03-31T07:26:34;101266.72;;;14.48;70.47
54948;BME280;41113;41.882;12.530;2023-03-31T07:28:59;101271.44;;;14.46;70.15
54948;BME280;41113;41.882;12.530;2023-03-31T07:31:24;101262.31;;;14.47;70.05
54948;BME280;41113;41.882;12.530;2023-03-31T07:33:50;101266.31;;;14.43;70.07
54948;BME280;41113;41.882;12.530;2023-03-31T07:36:15;101265.72;;;14.49;70.08
54948;BME280;41113;41.882;12.530;2023-03-31T07:38:43;101257.72;;;14.57;69.85
54948;BME280;41113;41.882;12.530;2023-03-31T07:41:14;101260.56;;;14.66;69.45
54948;BME280;41113;41.882;12.530;2023-03-31T07:43:40;101252.06;;;14.51;69.89
54948;BME280;41113;41.882;12.530;2023-03-31T07:46:12;101255.16;;;14.66;69.82
54948;BME280;41113;41.882;12.530;2023-03-31T07:48:37;101249.34;;;14.88;69.12
54948;BME280;41113;41.882;12.530;2023-03-31T07:51:03;101250.09;;;15.08;68.30
54948;BME280;41113;41.882;12.530;2023-03-31T07:53:29;101250.78;;;15.10;68.37
54948;BME280;41113;41.882;12.530;2023-03-31T07:55:55;101246.69;;;15.23;67.97
54948;BME280;41113;41.882;12.530;2023-03-31T07:58:20;101248.44;;;15.42;67.74
54948;BME280;41113;41.882;12.530;2023-03-31T08:00:46;101248.88;;;15.55;67.33
54948;BME280;41113;41.882;12.530;2023-03-31T08:03:11;101253.97;;;15.68;67.29
54948;BME280;41113;41.882;12.530;2023-03-31T08:05:37;101249.72;;;15.66;67.03
54948;BME280;41113;41.882;12.530;2023-03-31T08:08:02;101247.03;;;15.56;66.84
54948;BME280;41113;41.882;12.530;2023-03-31T08:10:27;101250.19;;;15.61;67.47
54948;BME280;41113;41.882;12.530;2023-03-31T08:12:53;101257.28;;;15.62;67.21
54948;BME280;41113;41.882;12.530;2023-03-31T08:15:20;101257.47;;;15.51;66.64
54948;BME280;41113;41.882;12.530;2023-03-31T08:17:46;101246.66;;;15.51;67.23
54948;BME280;41113;41.882;12.530;2023-03-31T08:20:12;101237.78;;;15.59;67.04
54948;BME280;41113;41.882;12.530;2023-03-31T08:22:39;101238.41;;;15.70;66.72
54948;BME280;41113;41.882;12.530;2023-03-31T08:25:05;101242.13;;;15.69;66.82
54948;BME280;41113;41.882;12.530;2023-03-31T08:27:37;101226.34;;;15.65;66.13
54948;BME280;41113;41.882;12.530;2023-03-31T08:30:04;101220.94;;;15.65;66.70
54948;BME280;41113;41.882;12.530;2023-03-31T08:32:31;101225.34;;;15.66;66.80
54948;BME280;41113;41.882;12.530;2023-03-31T08:34:58;101218.66;;;15.78;66.79
54948;BME280;41113;41.882;12.530;2023-03-31T08:37:23;101213.63;;;15.83;66.44
54948;BME280;41113;41.882;12.530;2023-03-31T08:39:50;101209.09;;;15.92;66.37
54948;BME280;41113;41.882;12.530;2023-03-31T08:47:22;101203.97;;;16.06;66.26
54948;BME280;41113;41.882;12.530;2023-03-31T08:49:52;101202.16;;;16.15;66.26
54948;BME280;41113;41.882;12.530;2023-03-31T08:52:28;101199.81;;;16.20;66.14
54948;BME280;41113;41.882;12.530;2023-03-31T08:55:04;101198.88;;;16.29;66.29
54948;BME280;41113;41.882;12.530;2023-03-31T09:00:17;101205.69;;;16.33;66.20
54948;BME280;41113;41.882;12.530;2023-03-31T09:02:51;101197.25;;;16.44;65.76
54948;BME280;41113;41.882;12.530;2023-03-31T09:05:41;101211.19;;;16.58;65.64
54948;BME280;41113;41.882;12.530;2023-03-31T09:08:34;101197.44;;;16.51;66.26
54948;BME280;41113;41.882;12.530;2023-03-31T09:13:59;101203.34;;;16.46;66.68
54948;BME280;41113;41.882;12.530;2023-03-31T09:19:39;101200.66;;;16.46;67.57
54948;BME280;41113;41.882;12.530;2023-03-31T09:22:24;101200.31;;;16.49;67.47
54948;BME280;41113;41.882;12.530;2023-03-31T09:25:02;101196.94;;;16.47;67.69
54948;BME280;41113;41.882;12.530;2023-03-31T09:27:31;101202.34;;;16.47;67.44
54948;BME280;41113;41.882;12.530;2023-03-31T09:30:21;101195.22;;;16.46;67.24
54948;BME280;41113;41.882;12.530;2023-03-31T09:32:52;101200.31;;;16.49;67.52
54948;BME280;41113;41.882;12.530;2023-03-31T09:35:21;101203.19;;;16.48;67.77
54948;BME280;41113;41.882;12.530;2023-03-31T09:37:49;101191.50;;;16.47;68.02
54948;BME280;41113;41.882;12.530;2023-03-31T09:40:26;101187.44;;;16.52;68.43
54948;BME280;41113;41.882;12.530;2023-03-31T09:43:01;101177.44;;;16.52;68.77
54948;BME280;41113;41.882;12.530;2023-03-31T09:45:29;101178.34;;;16.61;68.70
54948;BME280;41113;41.882;12.530;2023-03-31T09:47:56;101170.63;;;16.74;68.65
54948;BME280;41113;41.882;12.530;2023-03-31T09:50:23;101165.94;;;16.92;68.14
54948;BME280;41113;41.882;12.530;2023-03-31T09:52:57;101167.31;;;16.96;68.32
54948;BME280;41113;41.882;12.530;2023-03-31T09:55:44;101161.88;;;16.96;68.67
54948;BME280;41113;41.882;12.530;2023-03-31T09:58:15;101162.56;;;16.98;67.91
54948;BME280;41113;41.882;12.530;2023-03-31T10:00:41;101165.97;;;17.00;67.99
54948;BME280;41113;41.882;12.530;2023-03-31T10:03:12;101168.69;;;17.08;67.79
54948;BME280;41113;41.882;12.530;2023-03-31T10:05:51;101163.94;;;17.10;67.77
54948;BME280;41113;41.882;12.530;2023-03-31T10:08:30;101161.91;;;17.13;67.67
54948;BME280;41113;41.882;12.530;2023-03-31T10:13:27;101167.03;;;17.40;67.21
54948;BME280;41113;41.882;12.530;2023-03-31T10:16:00;101155.16;;;17.57;66.67
54948;BME280;41113;41.882;12.530;2023-03-31T10:18:35;101150.06;;;17.62;66.24
54948;BME280;41113;41.882;12.530;2023-03-31T10:21:03;101135.44;;;17.55;66.48
54948;BME280;41113;41.882;12.530;2023-03-31T10:23:31;101128.50;;;17.53;66.71
54948;BME280;41113;41.882;12.530;2023-03-31T10:25:57;101118.16;;;17.56;66.58
54948;BME280;41113;41.882;12.530;2023-03-31T10:28:24;101123.59;;;17.56;66.69
54948;BME280;41113;41.882;12.530;2023-03-31T10:30:53;101115.28;;;17.58;66.55
54948;BME280;41113;41.882;12.530;2023-03-31T10:33:22;101099.47;;;17.45;66.79
54948;BME280;41113;41.882;12.530;2023-03-31T10:35:59;101090.66;;;17.35;67.04
54948;BME280;41113;41.882;12.530;2023-03-31T10:38:38;101082.88;;;17.32;67.33
54948;BME280;41113;41.882;12.530;2023-03-31T10:41:06;101080.16;;;17.24;67.65
54948;BME280;41113;41.882;12.530;2023-03-31T10:43:46;101075.72;;;17.23;67.96
54948;BME280;41113;41.882;12.530;2023-03-31T10:46:12;101070.84;;;17.26;67.70
54948;BME280;41113;41.882;12.530;2023-03-31T10:48:39;101072.34;;;17.29;67.51
54948;BME280;41113;41.882;12.530;2023-03-31T10:53:45;101061.47;;;17.45;66.85
54948;BME280;41113;41.882;12.530;2023-03-31T10:59:02;101063.13;;;17.54;66.63
54948;BME280;41113;41.882;12.530;2023-03-31T11:13:34;101019.03;;;17.68;65.68
54948;BME280;41113;41.882;12.530;2023-03-31T11:23:42;101002.69;;;17.77;65.46
54948;BME280;41113;41.882;12.530;2023-03-31T11:31:39;101005.38;;;17.85;65.20
54948;BME280;41113;41.882;12.530;2023-03-31T11:42:28;101006.16;;;18.01;64.03
54948;BME280;41113;41.882;12.530;2023-03-31T11:45:04;100996.31;;;18.00;63.90
54948;BME280;41113;41.882;12.530;2023-03-31T11:47:36;100981.16;;;18.06;64.14
54948;BME280;41113;41.882;12.530;2023-03-31T11:50:10;100985.22;;;18.10;63.96
54948;BME280;41113;41.882;12.530;2023-03-31T11:52:39;100973.72;;;18.00;64.17
54948;BME280;41113;41.882;12.530;2023-03-31T11:58:08;100952.41;;;18.12;64.63
54948;BME280;41113;41.882;12.530;2023-03-31T12:00:46;100937.97;;;18.11;64.36
54948;BME280;41113;41.882;12.530;2023-03-31T12:03:18;100944.50;;;18.02;64.79
54948;BME280;41113;41.882;12.530;2023-03-31T12:05:52;100918.66;;;18.06;65.20
54948;BME280;41113;41.882;12.530;2023-03-31T12:10:54;100900.88;;;18.18;64.83
54948;BME280;41113;41.882;12.530;2023-03-31T12:13:33;100885.00;;;18.07;64.91
54948;BME280;41113;41.882;12.530;2023-03-31T12:16:09;100889.78;;;18.05;65.02
54948;BME280;41113;41.882;12.530;2023-03-31T12:18:42;100879.63;;;17.99;64.82
54948;BME280;41113;41.882;12.530;2023-03-31T12:21:10;100888.81;;;17.98;65.01
54948;BME280;41113;41.882;12.530;2023-03-31T12:23:41;100888.44;;;18.01;64.32
54948;BME280;41113;41.882;12.530;2023-03-31T12:29:00;100876.75;;;18.23;64.75
54948;BME280;41113;41.882;12.530;2023-03-31T12:31:29;100870.81;;;18.20;65.04
54948;BME280;41113;41.882;12.530;2023-03-31T12:34:13;100875.28;;;18.13;65.25
54948;BME280;41113;41.882;12.530;2023-03-31T12:39:30;100875.00;;;18.30;65.11
54948;BME280;41113;41.882;12.530;2023-03-31T12:45:39;100875.91;;;18.23;65.34
54948;BME280;41113;41.882;12.530;2023-03-31T12:56:08;100874.19;;;17.99;65.84
54948;BME280;41113;41.882;12.530;2023-03-31T12:58:37;100860.31;;;17.94;66.25
54948;BME280;41113;41.882;12.530;2023-03-31T13:06:01;100857.28;;;17.89;66.41
54948;BME280;41113;41.882;12.530;2023-03-31T13:08:50;100849.16;;;17.81;66.31
54948;BME280;41113;41.882;12.530;2023-03-31T13:11:16;100852.13;;;17.63;67.04
54948;BME280;41113;41.882;12.530;2023-03-31T13:13:56;100848.06;;;17.67;67.15
54948;BME280;41113;41.882;12.530;2023-03-31T13:16:22;100841.75;;;17.66;67.51
54948;BME280;41113;41.882;12.530;2023-03-31T13:18:52;100836.22;;;17.60;67.38
54948;BME280;41113;41.882;12.530;2023-03-31T13:21:18;100836.03;;;17.53;67.73
54948;BME280;41113;41.882;12.530;2023-03-31T13:23:45;100836.09;;;17.45;68.37
54948;BME280;41113;41.882;12.530;2023-03-31T13:26:44;100836.75;;;17.47;68.34
54948;BME280;41113;41.882;12.530;2023-03-31T13:34:31;100825.41;;;17.43;69.00
54948;BME280;41113;41.882;12.530;2023-03-31T13:40:06;100820.69;;;17.37;69.05
54948;BME280;41113;41.882;12.530;2023-03-31T13:48:36;100788.13;;;17.37;69.76
54948;BME280;41113;41.882;12.530;2023-03-31T13:54:35;100795.81;;;17.26;69.76
54948;BME280;41113;41.882;12.530;2023-03-31T13:56:54;100810.91;;;17.20;69.70
54948;BME280;41113;41.882;12.530;2023-03-31T13:59:47;100804.81;;;17.18;70.04
54948;BME280;41113;41.882;12.530;2023-03-31T14:05:27;100775.31;;;17.15;70.07
54948;BME280;41113;41.882;12.530;2023-03-31T14:08:55;100753.44;;;17.17;70.79
54948;BME280;41113;41.882;12.530;2023-03-31T14:11:14;100782.63;;;17.15;71.14
54948;BME280;41113;41.882;12.530;2023-03-31T14:13:40;100790.59;;;17.16;71.32
54948;BME280;41113;41.882;12.530;2023-03-31T14:16:07;100791.06;;;17.20;70.82
54948;BME280;41113;41.882;12.530;2023-03-31T14:18:35;100782.56;;;17.23;70.95
54948;BME280;41113;41.882;12.530;2023-03-31T14:21:14;100771.56;;;17.24;70.95
54948;BME280;41113;41.882;12.530;2023-03-31T14:29:04;100748.84;;;17.25;70.83
54948;BME280;41113;41.882;12.530;2023-03-31T14:36:59;100726.97;;;17.19;71.01
54948;BME280;41113;41.882;12.530;2023-03-31T14:39:44;100742.50;;;17.33;70.58
54948;BME280;41113;41.882;12.530;2023-03-31T14:42:15;100738.75;;;17.34;70.40
54948;BME280;41113;41.882;12.530;2023-03-31T14:44:42;100729.97;;;17.32;70.48
54948;BME280;41113;41.882;12.530;2023-03-31T14:47:20;100727.25;;;17.32;70.12
54948;BME280;41113;41.882;12.530;2023-03-31T14:49:46;100727.13;;;17.17;70.78
54948;BME280;41113;41.882;12.530;2023-03-31T14:52:17;100714.41;;;17.18;70.59
54948;BME280;41113;41.882;12.530;2023-03-31T14:54:44;100703.16;;;17.29;70.77
54948;BME280;41113;41.882;12.530;2023-03-31T14:57:15;100700.41;;;17.37;70.50
54948;BME280;41113;41.882;12.530;2023-03-31T14:59:42;100692.19;;;17.45;69.86
54948;BME280;41113;41.882;12.530;2023-03-31T15:02:14;100692.47;;;17.50;69.90
54948;BME280;41113;41.882;12.530;2023-03-31T15:04:41;100683.50;;;17.50;68.96
54948;BME280;41113;41.882;12.530;2023-03-31T15:07:11;100689.28;;;17.47;68.66
54948;BME280;41113;41.882;12.530;2023-03-31T15:09:37;100689.28;;;17.47;68.54
54948;BME280;41113;41.882;12.530;2023-03-31T15:12:09;100688.94;;;17.50;68.37
54948;BME280;41113;41.882;12.530;2023-03-31T15:14:48;100688.06;;;17.49;68.30
54948;BME280;41113;41.882;12.530;2023-03-31T15:17:22;100691.81;;;17.48;68.53
54948;BME280;41113;41.882;12.530;2023-03-31T15:19:56;100689.00;;;17.41;69.23
54948;BME280;41113;41.882;12.530;2023-03-31T15:22:24;100697.50;;;17.38;68.66
54948;BME280;41113;41.882;12.530;2023-03-31T15:24:51;100684.00;;;17.30;68.91
54948;BME280;41113;41.882;12.530;2023-03-31T15:28:01;100687.91;;;17.28;68.68
54948;BME280;41113;41.882;12.530;2023-03-31T15:30:25;100675.75;;;17.16;68.74